Time;durP1;ratioP1;P1;durP2;ratioP2;P2;SDS_P1;SDS_P2;PMS_P1;PMS_P2;Temp;Humidity;BMP_temperature;BMP_pressure;BME280_temperature;BME280_humidity;BME280_pressure;Samples;Min_cycle;Max_cycle;Signal;HPM_P1;HPM_P2
2021/08/25 00:01:26;;;;;;;2.58;1.20;;;21.40;55.10;;;;;;5052873;28;20561;-69
2021/08/25 00:03:51;;;;;;;3.13;1.38;;;21.40;55.20;;;;;;5052724;28;20029;-69
2021/08/25 00:06:17;;;;;;;2.42;1.08;;;21.40;55.10;;;;;;5052745;28;20025;-70
2021/08/25 00:08:43;;;;;;;3.95;1.40;;;21.40;55.10;;;;;;5053025;28;20029;-69
2021/08/25 00:11:08;;;;;;;1.92;0.90;;;21.40;55.20;;;;;;5052746;28;20028;-69
2021/08/25 00:13:34;;;;;;;6.25;1.55;;;21.40;55.20;;;;;;5052749;28;20025;-69
2021/08/25 00:15:59;;;;;;;4.05;1.10;;;21.40;55.20;;;;;;5052616;28;20056;-69
2021/08/25 00:18:25;;;;;;;3.10;1.30;;;21.30;55.20;;;;;;5052489;28;20037;-70
2021/08/25 00:20:50;;;;;;;2.28;1.10;;;21.30;55.30;;;;;;5052884;28;20534;-69
2021/08/25 00:23:16;;;;;;;3.80;1.35;;;21.30;55.30;;;;;;5054628;28;20031;-69
2021/08/25 00:25:42;;;;;;;3.67;1.42;;;21.30;55.30;;;;;;5056879;28;20013;-69
2021/08/25 00:28:07;;;;;;;3.63;1.50;;;21.30;55.30;;;;;;5056606;28;20025;-69
2021/08/25 00:30:33;;;;;;;4.22;1.65;;;21.30;55.30;;;;;;5056705;28;20053;-69
2021/08/25 00:32:58;;;;;;;3.67;1.63;;;21.30;55.30;;;;;;5056528;28;20020;-69
2021/08/25 00:35:24;;;;;;;4.30;1.40;;;21.30;55.30;;;;;;5055109;28;20041;-70
2021/08/25 00:37:49;;;;;;;3.78;1.40;;;21.20;55.40;;;;;;5056445;28;20029;-69
2021/08/25 00:40:15;;;;;;;2.63;1.20;;;21.20;55.40;;;;;;5056556;28;20036;-69
2021/08/25 00:42:41;;;;;;;3.35;1.35;;;21.20;55.40;;;;;;5056479;28;20160;-69
2021/08/25 00:45:08;;;;;;;3.65;1.40;;;21.20;55.40;;;;;;5056391;28;20032;-69
2021/08/25 00:47:39;;;;;;;3.58;1.38;;;21.20;55.40;;;;;;5056301;28;20032;-69
2021/08/25 00:50:06;;;;;;;3.28;1.40;;;21.20;55.40;;;;;;5056352;28;20062;-69
2021/08/25 00:52:34;;;;;;;3.45;1.33;;;21.20;55.40;;;;;;5056188;28;20436;-69
2021/08/25 00:55:00;;;;;;;2.85;1.13;;;21.20;55.40;;;;;;5056266;28;20029;-69
2021/08/25 00:57:26;;;;;;;4.05;1.60;;;21.20;55.40;;;;;;5056382;28;20025;-69
2021/08/25 00:59:52;;;;;;;3.70;1.20;;;21.20;55.50;;;;;;5056055;28;20031;-70
2021/08/25 01:02:25;;;;;;;3.90;1.52;;;21.10;55.50;;;;;;5056022;28;20021;-69
2021/08/25 01:04:57;;;;;;;3.67;1.10;;;21.10;55.50;;;;;;5055923;28;20060;-69
2021/08/25 01:07:24;;;;;;;3.70;1.20;;;21.10;55.50;;;;;;5055978;28;20037;-69
2021/08/25 01:09:52;;;;;;;2.97;1.30;;;21.10;55.60;;;;;;5055905;28;20381;-69
2021/08/25 01:12:23;;;;;;;3.72;1.35;;;21.10;55.60;;;;;;5054623;28;20384;-69
2021/08/25 01:14:49;;;;;;;3.00;1.20;;;21.10;55.60;;;;;;5056207;28;20361;-69
2021/08/25 01:17:23;;;;;;;3.78;1.83;;;21.10;55.60;;;;;;5054519;28;20036;-69
2021/08/25 01:20:06;;;;;;;3.70;1.65;;;21.10;55.60;;;;;;5055647;28;20044;-69
2021/08/25 01:22:32;;;;;;;4.90;1.63;;;21.10;55.60;;;;;;5055690;28;20559;-69
2021/08/25 01:24:58;;;;;;;4.20;1.35;;;21.10;55.60;;;;;;5055740;28;20124;-69
2021/08/25 01:27:27;;;;;;;4.95;1.65;;;21.10;55.60;;;;;;5055507;28;20013;-69
2021/08/25 01:29:53;;;;;;;4.80;1.80;;;21.00;55.60;;;;;;5055674;28;20086;-69
2021/08/25 01:32:19;;;;;;;3.78;1.30;;;21.10;55.60;;;;;;5055380;28;20469;-69
2021/08/25 01:34:55;;;;;;;3.33;1.30;;;21.00;55.60;;;;;;5055205;28;20051;-69
2021/08/25 01:37:25;;;;;;;4.18;1.35;;;21.00;55.60;;;;;;5055228;28;20041;-69
2021/08/25 01:39:54;;;;;;;4.22;1.67;;;21.00;55.70;;;;;;5055365;28;20044;-69
2021/08/25 01:42:21;;;;;;;3.83;1.70;;;21.00;55.70;;;;;;5055372;28;20480;-69
2021/08/25 01:44:51;;;;;;;3.20;1.40;;;21.00;55.70;;;;;;5055437;28;20388;-70
2021/08/25 01:47:17;;;;;;;3.42;1.45;;;21.00;55.70;;;;;;5055476;28;20055;-70
2021/08/25 01:49:51;;;;;;;3.97;1.58;;;21.00;55.70;;;;;;5055223;28;20021;-69
2021/08/25 01:52:17;;;;;;;4.32;1.83;;;21.00;55.70;;;;;;5055172;28;20110;-69
2021/08/25 01:54:47;;;;;;;3.45;1.50;;;21.00;55.70;;;;;;5055180;28;20084;-69
2021/08/25 01:57:12;;;;;;;4.72;1.92;;;21.00;55.80;;;;;;5055038;28;20025;-69
2021/08/25 01:59:38;;;;;;;3.92;1.63;;;21.00;55.80;;;;;;5055148;28;20041;-69
2021/08/25 02:02:04;;;;;;;3.83;1.67;;;21.00;55.80;;;;;;5055013;28;20098;-69
2021/08/25 02:04:31;;;;;;;4.70;1.65;;;21.00;55.80;;;;;;5054730;28;20056;-69
2021/08/25 02:06:56;;;;;;;3.47;1.48;;;21.00;55.80;;;;;;5054816;28;20040;-69
2021/08/25 02:09:22;;;;;;;4.32;1.88;;;21.00;55.80;;;;;;5054813;28;20025;-69
2021/08/25 02:11:48;;;;;;;4.10;1.60;;;21.00;55.80;;;;;;5054699;28;20025;-69
2021/08/25 02:14:14;;;;;;;5.47;2.13;;;21.00;55.80;;;;;;5054949;28;20025;-69
2021/08/25 02:16:39;;;;;;;3.95;1.73;;;20.90;55.80;;;;;;5054720;28;20385;-69
2021/08/25 02:19:05;;;;;;;4.25;1.58;;;20.90;55.90;;;;;;5054420;28;20044;-69
2021/08/25 02:21:31;;;;;;;4.78;1.88;;;20.90;55.90;;;;;;5053311;28;20026;-69
2021/08/25 02:23:57;;;;;;;3.90;1.60;;;20.90;55.90;;;;;;5054492;28;20029;-69
2021/08/25 02:26:22;;;;;;;5.57;2.08;;;20.90;55.90;;;;;;5054529;28;20348;-69
2021/08/25 02:28:53;;;;;;;4.53;1.80;;;20.90;55.90;;;;;;5054469;28;20033;-70
2021/08/25 02:31:19;;;;;;;5.05;2.05;;;20.90;56.00;;;;;;5054459;28;20068;-69
2021/08/25 02:33:45;;;;;;;4.72;1.70;;;20.90;56.00;;;;;;5054586;28;20074;-69
2021/08/25 02:36:12;;;;;;;5.10;1.92;;;20.80;56.00;;;;;;5054215;28;20548;-69
2021/08/25 02:38:38;;;;;;;4.45;1.67;;;20.80;56.00;;;;;;5054400;28;20033;-69
2021/08/25 02:41:06;;;;;;;4.93;2.10;;;20.80;56.00;;;;;;5054237;28;20510;-69
2021/08/25 02:43:32;;;;;;;4.90;1.88;;;20.80;56.00;;;;;;5054241;28;20404;-69
2021/08/25 02:45:57;;;;;;;4.25;1.67;;;20.80;56.00;;;;;;5053552;28;20017;-69
2021/08/25 02:48:23;;;;;;;3.60;1.58;;;20.80;56.00;;;;;;5054123;28;20467;-69
2021/08/25 02:50:48;;;;;;;5.20;1.90;;;20.80;56.10;;;;;;5054075;28;20040;-69
2021/08/25 02:53:16;;;;;;;4.65;1.92;;;20.80;56.00;;;;;;5053976;28;20056;-69
2021/08/25 02:55:42;;;;;;;4.97;2.05;;;20.80;56.10;;;;;;5054036;28;20021;-69
2021/08/25 02:58:07;;;;;;;5.97;2.30;;;20.70;56.10;;;;;;5053860;28;20029;-69
2021/08/25 03:00:33;;;;;;;3.97;1.80;;;20.70;56.10;;;;;;5053901;28;20032;-69
2021/08/25 03:02:58;;;;;;;4.93;2.20;;;20.70;56.10;;;;;;5053698;28;20024;-69
2021/08/25 03:05:24;;;;;;;5.35;2.10;;;20.70;56.10;;;;;;5053985;28;20029;-69
2021/08/25 03:07:49;;;;;;;5.13;2.20;;;20.70;56.20;;;;;;5053714;28;20025;-69
2021/08/25 03:10:15;;;;;;;5.00;2.10;;;20.70;56.10;;;;;;5053916;28;20021;-69
2021/08/25 03:12:40;;;;;;;4.05;1.88;;;20.70;56.20;;;;;;5053718;28;20033;-69
2021/08/25 03:15:07;;;;;;;4.78;1.88;;;20.70;56.20;;;;;;5053623;28;20028;-69
2021/08/25 03:17:33;;;;;;;5.25;2.22;;;20.70;56.20;;;;;;5053288;28;20028;-69
2021/08/25 03:19:58;;;;;;;4.00;2.00;;;20.60;56.20;;;;;;5053478;28;20036;-69
2021/08/25 03:22:27;;;;;;;4.88;2.00;;;20.70;56.20;;;;;;5052227;28;20055;-69
2021/08/25 03:24:53;;;;;;;5.03;2.30;;;20.70;56.20;;;;;;5053350;28;20021;-69
2021/08/25 03:27:19;;;;;;;3.78;1.73;;;20.70;56.20;;;;;;5052061;28;20029;-69
2021/08/25 03:29:44;;;;;;;4.95;2.05;;;20.60;56.20;;;;;;5053235;28;20400;-69
2021/08/25 03:32:10;;;;;;;4.22;1.80;;;20.60;56.20;;;;;;5053177;28;20107;-69
2021/08/25 03:34:35;;;;;;;3.95;1.92;;;20.60;56.20;;;;;;5053407;28;20029;-69
2021/08/25 03:37:01;;;;;;;3.92;1.58;;;20.60;56.30;;;;;;5053029;28;20051;-69
2021/08/25 03:39:26;;;;;;;4.68;1.95;;;20.60;56.30;;;;;;5053060;28;20457;-70
2021/08/25 03:41:52;;;;;;;4.82;2.00;;;20.60;56.30;;;;;;5053064;28;20481;-69
2021/08/25 03:44:17;;;;;;;5.68;2.08;;;20.60;56.30;;;;;;5053092;28;20031;-69
2021/08/25 03:46:43;;;;;;;4.65;2.00;;;20.60;56.30;;;;;;5053239;28;20066;-69
2021/08/25 03:49:08;;;;;;;4.28;1.73;;;20.60;56.30;;;;;;5052978;28;20056;-69
2021/08/25 03:51:34;;;;;;;5.25;1.95;;;20.50;56.30;;;;;;5051855;28;20104;-69
2021/08/25 03:53:59;;;;;;;4.18;1.90;;;20.60;56.30;;;;;;5052934;28;20552;-69
2021/08/25 03:56:25;;;;;;;4.57;1.90;;;20.50;56.30;;;;;;5052840;28;20104;-69
2021/08/25 03:58:50;;;;;;;5.13;1.88;;;20.50;56.30;;;;;;5052085;28;20067;-69
2021/08/25 04:01:16;;;;;;;6.30;2.42;;;20.50;56.30;;;;;;5052798;28;20021;-69
2021/08/25 04:03:41;;;;;;;5.32;2.30;;;20.50;56.40;;;;;;5053033;28;20025;-70
2021/08/25 04:06:07;;;;;;;5.22;2.15;;;20.50;56.40;;;;;;5052912;28;20449;-69
2021/08/25 04:08:32;;;;;;;4.10;1.88;;;20.50;56.40;;;;;;5052883;28;20029;-69
2021/08/25 04:10:58;;;;;;;4.75;2.20;;;20.50;56.40;;;;;;5052655;28;20522;-69
2021/08/25 04:13:24;;;;;;;4.47;1.92;;;20.50;56.40;;;;;;5052697;28;20040;-69
2021/08/25 04:15:49;;;;;;;4.63;2.17;;;20.50;56.50;;;;;;5052545;28;20138;-69
2021/08/25 04:18:15;;;;;;;4.85;2.03;;;20.50;56.50;;;;;;5052809;28;20287;-69
2021/08/25 04:20:40;;;;;;;4.13;1.98;;;20.50;56.50;;;;;;5052924;28;20118;-69
2021/08/25 04:23:06;;;;;;;5.63;2.25;;;20.50;56.50;;;;;;5052660;28;20456;-70
2021/08/25 04:25:31;;;;;;;4.72;2.05;;;20.50;56.50;;;;;;5051293;28;20087;-69
2021/08/25 04:27:57;;;;;;;5.82;2.25;;;20.50;56.50;;;;;;5052603;28;20025;-69
2021/08/25 04:30:22;;;;;;;4.18;1.70;;;20.50;56.50;;;;;;5052454;28;20021;-69
2021/08/25 04:32:48;;;;;;;4.35;2.03;;;20.50;56.50;;;;;;5052755;28;20086;-69
2021/08/25 04:35:13;;;;;;;4.68;2.03;;;20.50;56.50;;;;;;5052555;28;20349;-68
2021/08/25 04:37:39;;;;;;;4.85;2.20;;;20.50;56.50;;;;;;5052430;28;20120;-69
2021/08/25 04:40:05;;;;;;;4.57;2.08;;;20.40;56.60;;;;;;5052752;28;20021;-69
2021/08/25 04:42:31;;;;;;;5.90;2.40;;;20.40;56.60;;;;;;5052422;28;20029;-69
2021/08/25 04:44:57;;;;;;;4.18;2.00;;;20.40;56.60;;;;;;5052449;28;20060;-69
2021/08/25 04:47:22;;;;;;;4.65;1.90;;;20.40;56.60;;;;;;5052483;28;20045;-69
2021/08/25 04:49:48;;;;;;;4.57;2.20;;;20.40;56.60;;;;;;5052428;28;20025;-68
2021/08/25 04:52:14;;;;;;;5.18;2.30;;;20.40;56.60;;;;;;5052545;28;20032;-69
2021/08/25 04:54:40;;;;;;;4.70;2.08;;;20.40;56.60;;;;;;5052435;28;20036;-69
2021/08/25 04:57:05;;;;;;;5.07;2.17;;;20.40;56.60;;;;;;5052488;28;20021;-69
2021/08/25 04:59:31;;;;;;;3.90;1.95;;;20.40;56.60;;;;;;5052255;28;20033;-68
2021/08/25 05:01:56;;;;;;;5.05;2.20;;;20.40;56.60;;;;;;5052220;28;20079;-69
2021/08/25 05:04:22;;;;;;;6.13;2.50;;;20.40;56.60;;;;;;5051059;28;20447;-69
2021/08/25 05:06:47;;;;;;;5.20;2.20;;;20.40;56.60;;;;;;5052249;28;20017;-69
2021/08/25 05:09:13;;;;;;;5.68;2.42;;;20.40;56.60;;;;;;5053798;28;20013;-69
2021/08/25 05:11:38;;;;;;;8.48;1.90;;;20.40;56.60;;;;;;5055942;28;20025;-69
2021/08/25 05:14:04;;;;;;;4.93;2.10;;;20.40;56.60;;;;;;5054590;28;20020;-68
2021/08/25 05:16:29;;;;;;;5.60;1.75;;;20.30;56.60;;;;;;5055823;28;20063;-69
2021/08/25 05:18:55;;;;;;;4.95;2.05;;;20.40;56.60;;;;;;5055673;28;20045;-69
2021/08/25 05:21:20;;;;;;;5.05;2.22;;;20.40;56.60;;;;;;5055827;28;20021;-69
2021/08/25 05:23:46;;;;;;;4.15;1.90;;;20.30;56.60;;;;;;5055564;28;20411;-69
2021/08/25 05:26:11;;;;;;;5.07;2.05;;;20.30;56.60;;;;;;5054303;28;20056;-69
2021/08/25 05:28:37;;;;;;;5.13;2.28;;;20.40;56.60;;;;;;5037600;28;20499;-68
2021/08/25 05:31:02;;;;;;;4.72;2.15;;;20.30;56.70;;;;;;5055470;28;20025;-69
2021/08/25 05:33:28;;;;;;;4.72;2.15;;;20.30;56.70;;;;;;5055458;28;20522;-69
2021/08/25 05:35:53;;;;;;;4.50;2.20;;;20.30;56.60;;;;;;5053879;28;20404;-69
2021/08/25 05:38:19;;;;;;;5.07;1.95;;;20.30;56.60;;;;;;5055379;28;20025;-69
2021/08/25 05:40:45;;;;;;;4.22;1.75;;;20.30;56.70;;;;;;5055344;28;20025;-69
2021/08/25 05:43:10;;;;;;;4.88;1.98;;;20.30;56.70;;;;;;5055214;28;20116;-69
2021/08/25 05:45:35;;;;;;;5.10;2.20;;;20.30;56.70;;;;;;5055196;28;20037;-69
2021/08/25 05:48:01;;;;;;;4.70;2.05;;;20.30;56.70;;;;;;5055387;28;20026;-69
2021/08/25 05:50:27;;;;;;;4.40;1.92;;;20.30;56.60;;;;;;5055310;28;20423;-69
2021/08/25 05:52:53;;;;;;;4.60;2.00;;;20.30;56.70;;;;;;5054993;28;20063;-69
2021/08/25 05:55:19;;;;;;;4.50;2.00;;;20.30;56.70;;;;;;5055195;28;20017;-69
2021/08/25 05:57:47;;;;;;;4.80;2.00;;;20.30;56.60;;;;;;5054900;28;20044;-69
2021/08/25 06:00:17;;;;;;;4.20;1.92;;;20.30;56.60;;;;;;5055126;28;20041;-69
2021/08/25 06:02:43;;;;;;;3.58;1.70;;;20.30;56.60;;;;;;5055072;28;20040;-69
2021/08/25 06:05:10;;;;;;;4.13;1.77;;;20.30;56.60;;;;;;5053508;28;20381;-69
2021/08/25 06:07:35;;;;;;;4.72;2.22;;;20.40;56.60;;;;;;5054769;28;20068;-69
2021/08/25 06:10:02;;;;;;;4.15;1.80;;;20.40;56.50;;;;;;5054687;28;20068;-69
2021/08/25 06:12:27;;;;;;;4.75;1.90;;;20.40;56.50;;;;;;5054691;28;20025;-69
2021/08/25 06:14:52;;;;;;;4.43;2.13;;;20.40;56.50;;;;;;5054933;28;20070;-69
2021/08/25 06:17:18;;;;;;;5.00;2.00;;;20.40;56.50;;;;;;5054647;28;20033;-68
2021/08/25 06:19:43;;;;;;;4.70;1.98;;;20.40;56.50;;;;;;5052779;28;20040;-69
2021/08/25 06:22:09;;;;;;;4.60;1.92;;;20.40;56.40;;;;;;5053966;28;20032;-69
2021/08/25 06:24:35;;;;;;;5.72;2.40;;;20.40;56.40;;;;;;5054574;28;20033;-69
2021/08/25 06:27:02;;;;;;;3.88;1.70;;;20.40;56.40;;;;;;5053941;28;20054;-68
2021/08/25 06:29:28;;;;;;;5.75;1.95;;;20.40;56.40;;;;;;5053529;28;20036;-69
2021/08/25 06:31:53;;;;;;;5.15;2.38;;;20.40;56.50;;;;;;5053146;28;20033;-68
2021/08/25 06:34:19;;;;;;;5.32;1.88;;;20.40;56.40;;;;;;5054015;28;20025;-67
2021/08/25 06:36:44;;;;;;;4.65;1.95;;;20.40;56.40;;;;;;5054089;28;20052;-67
2021/08/25 06:39:10;;;;;;;4.63;1.92;;;20.40;56.40;;;;;;5054186;28;20041;-72
2021/08/25 06:41:36;;;;;;;6.53;2.90;;;20.40;56.40;;;;;;5053949;28;20031;-74
2021/08/25 06:44:02;;;;;;;9.35;3.70;;;20.20;55.10;;;;;;5052149;28;20033;-73
2021/08/25 06:46:28;;;;;;;8.93;3.60;;;20.00;55.10;;;;;;5053907;28;20021;-72
2021/08/25 06:48:53;;;;;;;9.05;3.63;;;19.70;55.30;;;;;;5046739;28;20123;-71
2021/08/25 06:51:19;;;;;;;10.52;4.18;;;19.50;55.70;;;;;;5046632;28;20078;-68
2021/08/25 06:53:44;;;;;;;8.32;3.72;;;19.40;55.50;;;;;;5044686;28;20397;-69
2021/08/25 06:56:10;;;;;;;10.00;4.20;;;19.40;55.20;;;;;;5052322;28;20075;-69
2021/08/25 06:58:35;;;;;;;7.03;3.65;;;19.20;55.50;;;;;;5060560;28;20044;-71
2021/08/25 07:01:01;;;;;;;7.35;3.60;;;19.30;55.30;;;;;;5059142;28;20029;-70
2021/08/25 07:03:26;;;;;;;9.43;4.00;;;19.30;55.30;;;;;;5065461;28;20109;-70
2021/08/25 07:05:52;;;;;;;11.10;4.30;;;19.40;55.20;;;;;;5052139;28;20043;-71
2021/08/25 07:08:17;;;;;;;8.57;4.38;;;19.50;55.00;;;;;;5053873;28;20020;-70
2021/08/25 07:10:43;;;;;;;10.27;4.57;;;19.50;55.10;;;;;;5052463;28;20037;-70
2021/08/25 07:13:08;;;;;;;10.95;4.90;;;19.60;54.90;;;;;;5053794;28;20040;-72
2021/08/25 07:15:34;;;;;;;11.93;4.22;;;19.60;54.90;;;;;;5057453;28;20174;-69
2021/08/25 07:18:00;;;;;;;10.65;3.92;;;19.70;55.00;;;;;;5064362;28;20033;-71
2021/08/25 07:20:25;;;;;;;9.88;4.05;;;19.60;55.00;;;;;;5057757;28;20032;-71
2021/08/25 07:22:51;;;;;;;10.73;5.25;;;19.60;54.90;;;;;;5056089;28;20025;-71
2021/08/25 07:25:16;;;;;;;14.02;4.93;;;19.60;55.10;;;;;;5052787;28;20025;-70
2021/08/25 07:27:42;;;;;;;11.10;4.68;;;19.60;55.00;;;;;;5052545;28;20040;-71
2021/08/25 07:30:09;;;;;;;10.27;4.13;;;19.70;54.70;;;;;;5049241;28;20036;-70
2021/08/25 07:32:35;;;;;;;9.10;4.18;;;19.80;55.00;;;;;;5064026;28;20021;-71
2021/08/25 07:35:01;;;;;;;9.50;4.60;;;19.80;54.80;;;;;;5058910;28;20028;-72
2021/08/25 07:37:27;;;;;;;10.13;4.07;;;19.70;55.10;;;;;;5047925;28;20053;-71
2021/08/25 07:39:52;;;;;;;12.02;4.28;;;19.70;55.40;;;;;;5054264;28;20102;-72
2021/08/25 07:42:18;;;;;;;10.38;4.45;;;19.80;55.20;;;;;;5053840;28;20028;-71
2021/08/25 07:44:44;;;;;;;10.10;4.18;;;19.90;54.80;;;;;;5054180;28;20107;-73
2021/08/25 07:47:09;;;;;;;11.95;4.28;;;19.90;54.80;;;;;;5051142;28;20550;-71
2021/08/25 07:49:34;;;;;;;9.57;3.90;;;20.00;55.00;;;;;;5057886;28;20031;-71
2021/08/25 07:52:02;;;;;;;11.30;3.95;;;20.10;54.70;;;;;;5045608;28;20363;-71
2021/08/25 07:54:27;;;;;;;11.10;4.70;;;20.10;54.60;;;;;;5051292;28;20048;-70
2021/08/25 07:56:53;;;;;;;9.10;3.78;;;20.20;54.60;;;;;;5050360;28;20473;-70
2021/08/25 07:59:18;;;;;;;12.57;4.65;;;20.10;54.80;;;;;;5052200;28;20037;-71
2021/08/25 08:01:44;;;;;;;8.25;3.95;;;20.20;54.90;;;;;;5040713;28;20108;-70
2021/08/25 08:04:09;;;;;;;9.65;3.50;;;20.20;54.80;;;;;;5053917;28;20035;-70
2021/08/25 08:06:35;;;;;;;8.27;4.05;;;20.30;54.90;;;;;;5045719;28;20028;-70
2021/08/25 08:09:01;;;;;;;11.05;3.78;;;20.40;54.70;;;;;;5045464;28;20033;-69
2021/08/25 08:11:27;;;;;;;9.45;3.85;;;20.40;54.60;;;;;;5062468;28;20465;-70
2021/08/25 08:13:52;;;;;;;11.05;3.85;;;20.40;54.40;;;;;;5055730;28;20039;-69
2021/08/25 08:16:20;;;;;;;14.60;4.28;;;20.50;54.70;;;;;;5055799;28;20475;-67
2021/08/25 08:18:58;;;;;;;10.48;4.60;;;20.50;54.90;;;;;;5054538;28;20037;-67
2021/08/25 08:21:25;;;;;;;14.25;4.13;;;20.50;54.90;;;;;;5054057;28;20022;-69
2021/08/25 08:23:51;;;;;;;9.75;4.35;;;20.50;55.00;;;;;;5054316;28;20037;-70
2021/08/25 08:26:17;;;;;;;9.45;4.03;;;20.50;54.90;;;;;;5043386;28;20036;-69
2021/08/25 08:28:42;;;;;;;9.85;4.28;;;20.50;54.80;;;;;;5046734;28;20031;-69
2021/08/25 08:31:09;;;;;;;11.70;4.75;;;20.50;54.90;;;;;;5050820;28;20385;-69
2021/08/25 08:33:35;;;;;;;12.18;4.50;;;20.50;54.70;;;;;;5043077;28;20033;-69
2021/08/25 08:36:01;;;;;;;11.35;4.38;;;20.50;54.80;;;;;;5040002;28;20064;-70
2021/08/25 08:38:26;;;;;;;9.15;3.85;;;20.50;54.90;;;;;;5051305;28;20030;-69
2021/08/25 08:40:52;;;;;;;9.88;3.92;;;20.50;54.50;;;;;;5051058;28;20120;-69
2021/08/25 08:43:17;;;;;;;10.32;3.13;;;20.60;54.30;;;;;;5042420;28;20555;-69
2021/08/25 08:45:44;;;;;;;8.60;3.30;;;20.70;54.50;;;;;;5049936;28;20067;-70
2021/08/25 08:48:14;;;;;;;8.40;3.60;;;20.70;54.70;;;;;;5060283;28;20060;-70
2021/08/25 08:50:48;;;;;;;9.85;3.35;;;20.70;54.40;;;;;;5053951;28;20583;-68
2021/08/25 08:53:16;;;;;;;;;;;20.70;54.50;;;;;;5052558;28;20029;-69
2021/08/25 08:55:42;;;;;;;9.98;3.53;;;20.80;54.40;;;;;;5042255;28;19931;-71
2021/08/25 08:58:08;;;;;;;8.48;3.03;;;20.80;54.50;;;;;;5055217;28;20040;-69
2021/08/25 09:00:34;;;;;;;8.88;3.35;;;20.70;53.50;;;;;;5051123;28;20543;-70
2021/08/25 09:03:00;;;;;;;9.98;3.75;;;20.80;54.20;;;;;;5048714;28;20033;-70
2021/08/25 09:05:32;;;;;;;10.05;3.50;;;20.80;54.00;;;;;;5056145;28;20033;-71
2021/08/25 09:08:07;;;;;;;8.48;3.35;;;20.80;54.20;;;;;;5049397;28;20410;-71
2021/08/25 09:10:38;;;;;;;7.88;3.70;;;20.90;54.20;;;;;;5068694;28;20503;-70
2021/08/25 09:13:08;;;;;;;6.68;3.05;;;20.90;54.10;;;;;;5043207;28;20164;-69
2021/08/25 09:15:36;;;;;;;8.18;3.47;;;21.00;54.10;;;;;;5065821;28;20021;-71
2021/08/25 09:18:10;;;;;;;8.85;3.33;;;21.00;53.90;;;;;;5045458;28;20025;-71
2021/08/25 09:20:45;;;;;;;6.63;2.92;;;20.90;53.80;;;;;;5062627;28;20036;-71
2021/08/25 09:23:14;;;;;;;;;;;21.00;54.10;;;;;;5062084;28;20414;-71
2021/08/25 09:25:41;;;;;;;8.57;2.83;;;21.00;53.10;;;;;;5064636;28;19909;-70
2021/08/25 09:28:09;;;;;;;8.98;3.17;;;21.00;53.50;;;;;;5049518;28;20566;-70
2021/08/25 09:30:50;;;;;;;8.77;3.00;;;21.00;53.70;;;;;;5051633;28;20028;-68
2021/08/25 09:33:17;;;;;;;7.75;3.25;;;21.00;53.10;;;;;;5059809;28;20032;-66
2021/08/25 09:35:44;;;;;;;7.53;3.35;;;21.00;51.10;;;;;;5058713;28;20081;-68
2021/08/25 09:38:20;;;;;;;7.63;3.25;;;21.00;52.20;;;;;;5035500;28;20037;-69
2021/08/25 09:40:53;;;;;;;7.97;3.15;;;21.00;52.10;;;;;;5048225;28;20034;-70
2021/08/25 09:43:29;;;;;;;6.80;2.90;;;21.00;51.00;;;;;;5045410;28;20520;-67
2021/08/25 09:46:13;;;;;;;7.85;3.40;;;21.00;49.60;;;;;;5047794;28;20775;-67
2021/08/25 09:48:44;;;;;;;7.50;3.05;;;20.90;48.20;;;;;;5049397;28;20163;-70
2021/08/25 09:51:11;;;;;;;7.68;3.22;;;21.00;48.40;;;;;;5051562;28;20017;-68
2021/08/25 09:53:37;;;;;;;8.38;3.03;;;21.00;48.10;;;;;;5043341;28;20040;-71
2021/08/25 09:56:18;;;;;;;9.07;3.50;;;21.00;48.40;;;;;;5065032;28;20036;-71
2021/08/25 09:58:44;;;;;;;8.88;3.22;;;21.00;48.00;;;;;;5047979;28;20071;-71
2021/08/25 10:01:10;;;;;;;10.02;3.67;;;21.00;46.60;;;;;;5051736;28;20037;-71
2021/08/25 10:03:35;;;;;;;7.65;2.90;;;21.00;47.50;;;;;;5047033;28;20061;-69
2021/08/25 10:06:00;;;;;;;7.03;2.85;;;21.00;47.50;;;;;;5043194;28;20133;-70
2021/08/25 10:08:26;;;;;;;9.75;2.75;;;21.00;47.10;;;;;;5053097;28;20025;-70
2021/08/25 10:10:53;;;;;;;7.28;2.92;;;21.10;47.20;;;;;;5043996;28;20040;-70
2021/08/25 10:13:18;;;;;;;7.75;3.20;;;21.00;46.90;;;;;;5047510;28;20035;-71
2021/08/25 10:15:47;;;;;;;8.25;2.75;;;21.00;47.00;;;;;;5051560;28;20032;-71
2021/08/25 10:18:26;;;;;;;6.28;2.70;;;21.00;46.30;;;;;;5051540;28;20045;-70
2021/08/25 10:20:53;;;;;;;6.43;2.95;;;21.00;45.80;;;;;;5043063;28;20025;-72
2021/08/25 10:23:20;;;;;;;9.45;3.13;;;21.00;46.00;;;;;;5046303;28;20021;-71
2021/08/25 10:26:06;;;;;;;8.07;3.03;;;21.10;46.70;;;;;;5039167;28;20029;-71
2021/08/25 10:29:03;;;;;;;7.50;3.10;;;21.20;47.00;;;;;;5048145;28;20021;-72
2021/08/25 10:31:51;;;;;;;7.47;2.97;;;21.20;46.70;;;;;;5046094;28;20163;-70
2021/08/25 10:34:21;;;;;;;7.57;3.03;;;21.10;47.40;;;;;;5042191;28;20372;-69
2021/08/25 10:36:47;;;;;;;8.38;2.85;;;21.10;46.60;;;;;;5050687;28;20140;-73
2021/08/25 10:39:33;;;;;;;10.98;3.20;;;21.20;46.60;;;;;;5050337;28;20044;-71
2021/08/25 10:42:00;;;;;;;9.10;3.60;;;21.30;46.20;;;;;;5051881;28;20025;-72
2021/08/25 10:44:40;;;;;;;7.20;2.65;;;21.30;46.40;;;;;;5047671;28;20025;-72
2021/08/25 10:47:08;;;;;;;7.25;3.25;;;21.40;47.10;;;;;;5047256;28;20025;-72
2021/08/25 10:49:35;;;;;;;8.85;3.22;;;21.40;47.40;;;;;;5045300;28;20034;-72
2021/08/25 10:52:16;;;;;;;8.32;3.05;;;21.40;47.00;;;;;;5048846;28;20419;-72
2021/08/25 10:54:47;;;;;;;8.35;3.22;;;21.50;47.70;;;;;;5047753;28;20110;-70
2021/08/25 10:57:15;;;;;;;8.07;3.28;;;21.50;47.40;;;;;;5049593;28;20056;-72
2021/08/25 10:59:40;;;;;;;8.43;3.35;;;21.50;47.80;;;;;;5047007;28;20033;-72
2021/08/25 11:02:07;;;;;;;12.13;3.05;;;21.50;48.00;;;;;;5054410;28;21327;-71
2021/08/25 11:04:33;;;;;;;7.82;3.22;;;21.60;47.20;;;;;;5043111;28;20025;-71
2021/08/25 11:07:08;;;;;;;8.15;3.28;;;21.70;47.20;;;;;;5050079;28;20106;-67
2021/08/25 11:09:42;;;;;;;8.52;3.53;;;21.70;46.70;;;;;;5048899;28;20090;-68
2021/08/25 11:12:16;;;;;;;10.82;3.60;;;21.70;46.90;;;;;;5050731;28;20465;-68
2021/08/25 11:14:50;;;;;;;6.65;2.53;;;21.80;46.40;;;;;;5044230;28;20113;-71
2021/08/25 11:17:17;;;;;;;6.47;3.10;;;21.90;46.50;;;;;;5044867;28;20040;-71
2021/08/25 11:19:56;;;;;;;7.75;3.15;;;21.90;46.40;;;;;;5046374;28;20485;-69
2021/08/25 11:22:25;;;;;;;8.00;3.20;;;22.00;45.60;;;;;;5049741;28;20359;-71
2021/08/25 11:24:56;;;;;;;7.60;3.08;;;22.10;45.20;;;;;;5045176;28;20036;-70
2021/08/25 11:27:25;;;;;;;7.72;3.53;;;22.10;44.50;;;;;;5047351;28;20025;-70
2021/08/25 11:30:15;;;;;;;9.55;3.75;;;22.10;44.30;;;;;;5040027;28;20036;-69
2021/08/25 11:32:51;;;;;;;6.80;3.30;;;22.10;44.30;;;;;;5057672;28;20027;-70
2021/08/25 11:35:34;;;;;;;7.13;2.97;;;22.20;43.60;;;;;;5059061;28;20028;-70
2021/08/25 11:38:11;;;;;;;6.47;3.08;;;22.10;44.20;;;;;;5057167;28;20048;-70
2021/08/25 11:40:39;;;;;;;7.32;3.10;;;22.10;45.00;;;;;;5048890;28;20439;-70
2021/08/25 11:43:11;;;;;;;7.15;3.15;;;22.20;45.10;;;;;;5033208;28;20079;-71
2021/08/25 11:45:37;;;;;;;6.88;2.78;;;22.20;45.60;;;;;;5031111;28;20095;-72
2021/08/25 11:48:03;;;;;;;6.68;3.10;;;22.40;44.50;;;;;;5043832;28;20104;-71
2021/08/25 11:50:35;;;;;;;9.88;3.20;;;22.50;44.70;;;;;;5036678;28;20108;-71
2021/08/25 11:53:01;;;;;;;6.35;2.90;;;22.50;45.30;;;;;;5035825;28;20041;-72
2021/08/25 11:55:28;;;;;;;8.77;3.17;;;22.40;45.10;;;;;;5035067;28;20029;-71
2021/08/25 11:57:55;;;;;;;7.60;3.58;;;22.40;45.30;;;;;;5045195;28;20381;-71
2021/08/25 12:00:39;;;;;;;9.93;3.90;;;22.50;45.00;;;;;;5032105;28;20033;-71
2021/08/25 12:03:06;;;;;;;6.88;3.20;;;22.50;45.10;;;;;;5043180;28;20028;-73
2021/08/25 12:05:37;;;;;;;8.77;3.10;;;22.50;44.40;;;;;;5051276;28;20572;-69
2021/08/25 12:08:05;;;;;;;8.27;3.35;;;22.50;45.10;;;;;;5060177;28;20488;-68
2021/08/25 12:10:32;;;;;;;7.55;3.47;;;22.60;44.70;;;;;;5050978;28;20076;-70
2021/08/25 12:12:58;;;;;;;9.27;3.40;;;22.80;43.50;;;;;;5057782;28;20495;-69
2021/08/25 12:15:46;;;;;;;6.55;3.38;;;22.60;43.70;;;;;;5054322;28;20041;-68
2021/08/25 12:18:13;;;;;;;7.57;3.13;;;22.80;43.50;;;;;;5051836;28;20028;-68
2021/08/25 12:20:40;;;;;;;6.50;3.17;;;22.80;43.60;;;;;;5037910;28;20038;-67
2021/08/25 12:23:10;;;;;;;6.78;3.15;;;22.90;43.20;;;;;;5055759;28;20044;-69
2021/08/25 12:25:55;;;;;;;8.18;2.92;;;22.90;43.00;;;;;;5046458;28;20579;-67
2021/08/25 12:28:36;;;;;;;6.35;2.70;;;22.80;43.00;;;;;;5052656;28;20401;-70
2021/08/25 12:31:22;;;;;;;5.28;2.00;;;22.90;43.20;;;;;;5052615;28;20133;-69
2021/08/25 12:34:03;;;;;;;6.35;2.78;;;22.80;43.20;;;;;;5056835;28;20028;-69
2021/08/25 12:36:32;;;;;;;8.18;3.20;;;22.80;43.80;;;;;;5041105;28;20045;-68
2021/08/25 12:39:12;;;;;;;8.40;3.22;;;22.90;43.30;;;;;;5058890;28;20032;-69
2021/08/25 12:41:43;;;;;;;7.30;2.80;;;23.20;42.20;;;;;;5066165;28;20051;-70
2021/08/25 12:44:09;;;;;;;6.57;2.50;;;23.20;42.50;;;;;;5054186;28;20112;-67
2021/08/25 12:46:54;;;;;;;6.53;3.00;;;23.10;43.20;;;;;;5059724;28;20437;-68
2021/08/25 12:49:22;;;;;;;6.40;2.83;;;23.00;43.30;;;;;;5054653;28;20048;-68